createdAt,value
2022-09-13T00:01:50.700Z,14.07
2022-09-13T00:04:20.887Z,13.96
2022-09-13T00:06:51.143Z,14.01
2022-09-13T00:09:21.406Z,14.10
2022-09-13T00:11:52.492Z,13.95
2022-09-13T00:14:22.975Z,14.00
2022-09-13T00:16:53.652Z,14.00
2022-09-13T00:19:24.075Z,13.82
2022-09-13T00:21:54.353Z,14.04
2022-09-13T00:24:24.621Z,13.92
2022-09-13T00:26:54.788Z,13.92
2022-09-13T00:29:26.666Z,13.95
2022-09-13T00:31:59.298Z,13.72
2022-09-13T00:34:29.560Z,13.87
2022-09-13T00:36:59.871Z,13.80
2022-09-13T00:39:30.101Z,13.80
2022-09-13T00:42:00.426Z,13.73
2022-09-13T00:47:59.696Z,13.81
2022-09-13T00:53:34.097Z,13.85
2022-09-13T00:56:09.395Z,13.87
2022-09-13T00:58:43.174Z,13.98
2022-09-13T01:01:17.566Z,13.92
2022-09-13T01:03:50.164Z,14.12
2022-09-13T01:09:13.605Z,13.94
2022-09-13T01:11:49.530Z,13.94
2022-09-13T01:14:20.940Z,13.96
2022-09-13T01:16:53.436Z,13.84
2022-09-13T01:19:24.239Z,13.88
2022-09-13T01:22:20.731Z,13.70
2022-09-13T01:24:59.916Z,13.61
2022-09-13T01:27:36.151Z,13.61
2022-09-13T01:30:15.910Z,13.61
2022-09-13T01:33:22.317Z,13.26
2022-09-13T01:36:16.456Z,13.15
2022-09-13T01:38:49.911Z,13.29
2022-09-13T01:41:43.967Z,13.23
2022-09-13T01:44:41.251Z,13.23
2022-09-13T01:47:20.218Z,13.04
2022-09-13T01:50:14.266Z,13.04
2022-09-13T01:52:53.101Z,12.84
2022-09-13T01:55:35.217Z,12.65
2022-09-13T01:58:23.473Z,12.69
2022-09-13T02:01:11.482Z,12.69
2022-09-13T02:03:56.966Z,12.69
2022-09-13T02:06:33.240Z,12.64
2022-09-13T02:09:07.064Z,12.57
2022-09-13T02:11:41.231Z,12.44
2022-09-13T02:17:06.213Z,12.47
2022-09-13T02:19:51.415Z,12.57
2022-09-13T02:22:27.069Z,12.49
2022-09-13T02:25:00.720Z,12.43
2022-09-13T02:27:33.394Z,12.26
2022-09-13T02:30:07.580Z,12.45
2022-09-13T02:32:40.824Z,12.48
2022-09-13T02:35:14.063Z,12.48
2022-09-13T02:37:47.411Z,12.37
2022-09-13T02:40:21.015Z,12.35
2022-09-13T02:43:15.251Z,12.44
2022-09-13T02:45:54.588Z,12.31
2022-09-13T02:48:37.476Z,12.11
2022-09-13T02:51:34.291Z,12.26
2022-09-13T02:54:38.821Z,12.26
2022-09-13T02:57:30.643Z,12.12
2022-09-13T03:00:01.242Z,12.26
2022-09-13T03:02:33.702Z,12.10
2022-09-13T03:05:04.673Z,12.10
2022-09-13T03:07:36.471Z,12.00
2022-09-13T03:10:09.689Z,12.00
2022-09-13T03:12:54.983Z,12.00
2022-09-13T03:15:30.902Z,11.92
2022-09-13T03:18:21.839Z,11.70
2022-09-13T03:21:10.052Z,11.79
2022-09-13T03:23:52.038Z,11.72
2022-09-13T03:26:28.161Z,11.63
2022-09-13T03:29:21.171Z,11.67
2022-09-13T03:31:54.542Z,11.69
2022-09-13T03:34:33.552Z,11.69
2022-09-13T03:37:24.924Z,11.64
2022-09-13T03:40:07.187Z,11.60
2022-09-13T03:42:52.650Z,11.59
2022-09-13T03:45:26.318Z,11.64
2022-09-13T03:47:57.653Z,11.70
2022-09-13T03:50:29.262Z,11.66
2022-09-13T03:53:05.260Z,11.68
2022-09-13T03:55:43.327Z,11.76
2022-09-13T03:58:34.312Z,11.77
2022-09-13T04:01:04.724Z,11.77
2022-09-13T04:03:35.054Z,11.77
2022-09-13T04:06:05.842Z,11.77
2022-09-13T04:08:36.236Z,11.80
2022-09-13T04:11:07.610Z,11.71
2022-09-13T04:13:38.823Z,11.75
2022-09-13T04:16:09.622Z,11.75
2022-09-13T04:18:39.915Z,11.86
2022-09-13T04:21:10.371Z,11.86
2022-09-13T04:23:40.658Z,11.86
2022-09-13T04:26:12.398Z,11.86
2022-09-13T04:28:45.817Z,11.93
2022-09-13T04:31:16.389Z,11.95
2022-09-13T04:33:49.306Z,12.03
2022-09-13T04:36:22.232Z,11.95
2022-09-13T04:38:53.280Z,11.95
2022-09-13T04:41:23.620Z,11.88
2022-09-13T04:43:53.829Z,11.92
2022-09-13T04:46:24.247Z,11.92
2022-09-13T04:48:55.674Z,11.93
2022-09-13T04:51:26.081Z,11.97
2022-09-13T04:53:57.252Z,12.06
2022-09-13T04:56:28.052Z,11.98
2022-09-13T04:58:58.383Z,11.98
2022-09-13T05:01:30.160Z,12.44
2022-09-13T05:04:03.600Z,12.44
2022-09-13T05:06:34.474Z,12.51
2022-09-13T05:09:05.607Z,12.57
2022-09-13T05:11:35.913Z,12.60
2022-09-13T05:14:06.720Z,12.85
2022-09-13T05:16:37.846Z,12.74
2022-09-13T05:19:09.514Z,12.57
2022-09-13T05:21:43.637Z,12.90
2022-09-13T05:24:14.368Z,13.20
2022-09-13T05:26:44.525Z,13.60
2022-09-13T05:29:14.832Z,13.48
2022-09-13T05:31:45.541Z,14.01
2022-09-13T05:34:17.492Z,13.99
2022-09-13T05:36:53.188Z,13.81
2022-09-13T05:39:31.854Z,13.98
2022-09-13T05:42:12.891Z,14.04
2022-09-13T05:44:45.346Z,14.27
2022-09-13T05:47:17.752Z,14.33
2022-09-13T05:50:08.934Z,14.24
2022-09-13T05:52:20.258Z,14.42
2022-09-13T05:54:50.485Z,14.42
2022-09-13T05:57:21.141Z,13.85
2022-09-13T05:59:51.277Z,13.87
2022-09-13T06:02:22.233Z,14.05
2022-09-13T06:04:52.590Z,14.26
2022-09-13T06:07:22.981Z,14.12
2022-09-13T06:09:53.214Z,14.86
2022-09-13T06:12:23.661Z,14.86
2022-09-13T06:14:54.653Z,15.45
2022-09-13T06:17:25.277Z,15.48
2022-09-13T06:19:55.617Z,15.03
2022-09-13T06:22:25.863Z,15.09
2022-09-13T06:24:56.370Z,14.95
2022-09-13T06:27:26.676Z,15.03
2022-09-13T06:29:56.920Z,15.12
2022-09-13T06:32:28.729Z,15.12
2022-09-13T06:34:59.731Z,15.24
2022-09-13T06:37:30.107Z,15.09
2022-09-13T06:40:00.904Z,15.09
2022-09-13T06:42:35.014Z,15.02
2022-09-13T06:47:43.604Z,15.46
2022-09-13T06:50:15.400Z,15.77
2022-09-13T06:52:46.131Z,16.08
2022-09-13T06:55:19.217Z,15.88
2022-09-13T06:57:49.950Z,15.88
2022-09-13T07:00:20.296Z,15.08
2022-09-13T07:02:54.062Z,15.08
2022-09-13T07:05:26.667Z,15.96
2022-09-13T07:07:57.373Z,17.13
2022-09-13T07:10:28.432Z,17.13
2022-09-13T07:12:59.108Z,17.97
2022-09-13T07:15:32.421Z,17.33
2022-09-13T07:18:02.772Z,17.37
2022-09-13T07:20:34.664Z,17.37
2022-09-13T07:23:15.448Z,17.67
2022-09-13T07:25:49.047Z,17.44
2022-09-13T07:28:22.206Z,17.89
2022-09-13T07:30:52.162Z,17.83
2022-09-13T07:33:22.747Z,17.57
2022-09-13T07:36:17.360Z,17.79
2022-09-13T07:38:50.696Z,17.89
2022-09-13T07:41:25.322Z,17.69
2022-09-13T07:43:57.922Z,18.02
2022-09-13T07:46:30.649Z,18.22
2022-09-13T07:49:05.067Z,18.22
2022-09-13T07:51:37.602Z,17.25
2022-09-13T07:54:13.891Z,16.76
2022-09-13T07:56:44.730Z,18.09
2022-09-13T07:59:26.991Z,18.09
2022-09-13T08:02:09.719Z,18.88
2022-09-13T08:04:51.517Z,18.86
2022-09-13T08:07:23.529Z,18.90
2022-09-13T08:09:55.571Z,18.80
2022-09-13T08:12:27.264Z,19.77
2022-09-13T08:14:58.172Z,19.77
2022-09-13T08:17:30.613Z,18.32
2022-09-13T08:20:05.711Z,18.32
2022-09-13T08:22:34.795Z,18.17
2022-09-13T08:25:06.777Z,18.08
2022-09-13T08:27:42.287Z,17.55
2022-09-13T08:30:14.643Z,17.53
2022-09-13T08:32:45.096Z,17.46
2022-09-13T08:35:15.752Z,17.46
2022-09-13T08:37:51.417Z,17.30
2022-09-13T08:40:24.713Z,17.30
2022-09-13T08:43:18.571Z,17.33
2022-09-13T08:45:54.680Z,18.02
2022-09-13T08:48:27.951Z,18.12
2022-09-13T08:51:08.714Z,18.12
2022-09-13T08:53:50.985Z,17.87
2022-09-13T08:56:43.922Z,19.77
2022-09-13T08:59:48.009Z,20.78
2022-09-13T09:02:48.208Z,20.00
2022-09-13T09:05:39.602Z,21.09
2022-09-13T09:08:35.930Z,22.62
2022-09-13T09:11:10.811Z,23.29
2022-09-13T09:13:49.699Z,23.29
2022-09-13T09:16:38.314Z,22.65
2022-09-13T09:19:23.713Z,22.39
2022-09-13T09:21:59.178Z,22.63
2022-09-13T09:24:40.883Z,23.02
2022-09-13T09:27:22.259Z,21.08
2022-09-13T09:30:09.603Z,20.85
2022-09-13T09:32:56.813Z,19.94
2022-09-13T09:35:46.426Z,19.94
2022-09-13T09:38:43.096Z,18.81
2022-09-13T09:41:22.550Z,18.57
2022-09-13T09:43:55.806Z,18.57
2022-09-13T09:46:33.681Z,18.17
2022-09-13T09:49:09.492Z,19.10
2022-09-13T09:51:40.636Z,18.83
2022-09-13T09:54:15.025Z,18.83
2022-09-13T09:56:48.632Z,18.97
2022-09-13T09:59:29.561Z,18.84
2022-09-13T10:04:57.285Z,18.67
2022-09-13T10:07:34.293Z,18.32
2022-09-13T10:10:16.549Z,18.24
2022-09-13T10:13:03.393Z,18.30
2022-09-13T10:15:54.557Z,18.87
2022-09-13T10:18:43.318Z,18.87
2022-09-13T10:21:22.380Z,19.57
2022-09-13T10:23:54.804Z,19.57
2022-09-13T10:26:27.228Z,19.94
2022-09-13T10:29:13.529Z,19.94
2022-09-13T10:31:47.001Z,19.93
2022-09-13T10:34:22.629Z,19.43
2022-09-13T10:37:05.182Z,19.43
2022-09-13T10:39:37.612Z,19.33
2022-09-13T10:42:13.174Z,19.33
2022-09-13T10:45:12.363Z,19.86
2022-09-13T10:47:49.435Z,19.84
2022-09-13T10:50:46.432Z,19.27
2022-09-13T10:53:40.564Z,19.31
2022-09-13T10:56:23.507Z,19.31
2022-09-13T10:59:24.641Z,19.17
2022-09-13T11:02:12.820Z,21.42
2022-09-13T11:05:05.782Z,21.42
2022-09-13T11:12:30.747Z,24.22
2022-09-13T11:14:39.228Z,21.40
2022-09-13T11:17:21.503Z,21.14
2022-09-13T11:20:03.413Z,21.36
2022-09-13T11:22:46.075Z,21.36
2022-09-13T11:25:51.950Z,20.57
2022-09-13T11:28:30.121Z,20.72
2022-09-13T11:31:28.647Z,20.72
2022-09-13T11:34:16.677Z,19.97
2022-09-13T11:36:57.016Z,19.28
2022-09-13T11:39:42.305Z,19.11
2022-09-13T11:42:38.108Z,19.11
2022-09-13T11:45:23.339Z,18.88
2022-09-13T11:48:15.559Z,18.70
2022-09-13T11:50:51.900Z,18.73
2022-09-13T11:53:47.582Z,18.61
2022-09-13T11:56:49.037Z,18.20
2022-09-13T11:59:42.943Z,18.14
2022-09-13T12:02:37.894Z,18.14
2022-09-13T12:05:23.748Z,18.19
2022-09-13T12:07:57.539Z,17.96
2022-09-13T12:11:00.368Z,17.87
2022-09-13T12:13:33.881Z,17.87
2022-09-13T12:16:07.829Z,17.70
2022-09-13T12:18:41.378Z,17.70
2022-09-13T12:21:17.573Z,17.77
2022-09-13T12:24:03.459Z,17.79
2022-09-13T12:26:55.598Z,17.70
2022-09-13T12:32:09.323Z,18.06
2022-09-13T12:38:40.941Z,17.80
2022-09-13T12:41:32.810Z,17.80
2022-09-13T12:44:33.408Z,17.61
2022-09-13T12:47:13.819Z,17.54
2022-09-13T12:49:53.361Z,17.56
2022-09-13T12:52:32.230Z,17.34
2022-09-13T12:58:21.074Z,17.24
2022-09-13T13:01:14.681Z,17.09
2022-09-13T13:03:50.393Z,17.15
2022-09-13T13:06:26.258Z,17.12
2022-09-13T13:08:59.479Z,17.02
2022-09-13T13:11:32.641Z,16.64
2022-09-13T13:14:11.981Z,16.64
2022-09-13T13:16:43.764Z,16.72
2022-09-13T13:19:34.507Z,17.01
2022-09-13T13:22:41.051Z,16.62
2022-09-13T13:25:31.007Z,16.25
2022-09-13T13:28:01.319Z,16.25
2022-09-13T13:30:40.692Z,16.41
2022-09-13T13:33:17.155Z,16.50
2022-09-13T13:35:56.462Z,16.46
2022-09-13T13:38:33.397Z,16.13
2022-09-13T13:41:26.158Z,16.01
2022-09-13T13:43:56.603Z,16.01
2022-09-13T13:46:29.797Z,15.85
2022-09-13T13:49:31.935Z,15.61
2022-09-13T13:52:13.009Z,15.70
2022-09-13T13:54:46.972Z,15.44
2022-09-13T13:57:34.889Z,15.33
2022-09-13T14:00:27.723Z,15.33
2022-09-13T14:03:03.439Z,15.52
2022-09-13T14:09:13.588Z,15.32
2022-09-13T14:12:14.782Z,15.37
2022-09-13T14:15:12.215Z,15.23
2022-09-13T14:17:57.320Z,15.06
2022-09-13T14:20:27.723Z,15.05
2022-09-13T14:23:20.498Z,15.03
2022-09-13T14:25:58.577Z,14.91
2022-09-13T14:28:29.668Z,14.96
2022-09-13T14:31:00.577Z,14.96
2022-09-13T14:33:36.459Z,14.99
2022-09-13T14:36:09.965Z,15.17
2022-09-13T14:38:43.172Z,15.00
2022-09-13T14:41:17.397Z,15.25
2022-09-13T14:43:49.979Z,15.29
2022-09-13T14:46:26.263Z,15.24
2022-09-13T14:48:59.537Z,15.24
2022-09-13T14:51:38.701Z,15.21
2022-09-13T14:54:17.537Z,15.14
2022-09-13T14:56:50.754Z,15.41
2022-09-13T14:59:30.167Z,15.11
2022-09-13T15:02:09.178Z,15.36
2022-09-13T15:04:43.123Z,15.36
2022-09-13T15:07:25.263Z,15.03
2022-09-13T15:10:07.649Z,15.27
2022-09-13T15:12:38.768Z,15.09
2022-09-13T15:15:23.921Z,15.05
2022-09-13T15:17:57.659Z,15.05
2022-09-13T15:20:30.963Z,14.84
2022-09-13T15:23:02.857Z,14.84
2022-09-13T15:25:34.308Z,14.89
2022-09-13T15:28:04.701Z,14.88
2022-09-13T15:30:41.001Z,14.78
2022-09-13T15:33:19.139Z,14.88
2022-09-13T15:36:22.100Z,14.88
2022-09-13T15:39:04.625Z,14.68
2022-09-13T15:41:37.526Z,14.74
2022-09-13T15:44:10.241Z,14.78
2022-09-13T15:47:10.697Z,14.69
2022-09-13T15:49:42.787Z,14.57
2022-09-13T15:52:14.992Z,14.49
2022-09-13T15:54:48.427Z,14.49
2022-09-13T15:57:27.594Z,14.49
2022-09-13T16:00:01.511Z,14.61
2022-09-13T16:02:43.832Z,14.56
2022-09-13T16:05:16.629Z,14.56
2022-09-13T16:07:46.956Z,14.50
2022-09-13T16:10:21.300Z,14.64
2022-09-13T16:12:53.304Z,14.76
2022-09-13T16:15:26.028Z,14.64
2022-09-13T16:17:58.120Z,14.80
2022-09-13T16:20:31.997Z,14.78
2022-09-13T16:23:04.378Z,14.73
2022-09-13T16:25:36.597Z,14.84
2022-09-13T16:28:10.711Z,14.84
2022-09-13T16:30:44.795Z,14.85
2022-09-13T16:33:15.334Z,14.88
2022-09-13T16:35:46.141Z,14.88
2022-09-13T16:38:18.395Z,14.84
2022-09-13T16:40:50.014Z,14.82
2022-09-13T16:43:24.032Z,14.67
2022-09-13T16:45:54.347Z,14.75
2022-09-13T16:48:25.076Z,14.87
2022-09-13T16:50:56.936Z,14.80
2022-09-13T16:53:27.335Z,14.80
2022-09-13T16:56:09.765Z,14.71
2022-09-13T16:58:44.757Z,14.85
2022-09-13T17:01:18.096Z,14.87
2022-09-13T17:03:54.585Z,14.87
2022-09-13T17:06:24.807Z,14.90
2022-09-13T17:09:00.560Z,14.79
2022-09-13T17:11:34.190Z,14.64
2022-09-13T17:14:06.659Z,14.71
2022-09-13T17:16:40.498Z,14.56
2022-09-13T17:19:17.969Z,14.58
2022-09-13T17:21:50.337Z,14.58
2022-09-13T17:24:20.505Z,14.59
2022-09-13T17:26:51.338Z,14.58
2022-09-13T17:29:21.633Z,14.64
2022-09-13T17:31:52.703Z,14.59
2022-09-13T17:34:23.021Z,14.59
2022-09-13T17:36:54.128Z,14.45
2022-09-13T17:39:29.712Z,14.47
2022-09-13T17:42:00.195Z,14.36
2022-09-13T17:44:33.224Z,14.36
2022-09-13T17:47:06.627Z,14.36
2022-09-13T17:49:37.359Z,14.36
2022-09-13T17:52:07.640Z,14.10
2022-09-13T17:54:38.306Z,14.03
2022-09-13T17:57:21.380Z,14.19
2022-09-13T18:00:08.363Z,14.21
2022-09-13T18:02:38.962Z,14.11
2022-09-13T18:05:13.637Z,14.09
2022-09-13T18:07:44.318Z,14.09
2022-09-13T18:10:45.263Z,14.03
2022-09-13T18:12:52.454Z,14.12
2022-09-13T18:15:25.252Z,14.14
2022-09-13T18:17:58.041Z,14.14
2022-09-13T18:20:28.639Z,13.91
2022-09-13T18:23:01.837Z,13.98
2022-09-13T18:25:32.242Z,14.01
2022-09-13T18:28:04.260Z,14.01
2022-09-13T18:30:37.635Z,14.11
2022-09-13T18:33:11.510Z,14.11
2022-09-13T18:35:42.500Z,14.07
2022-09-13T18:38:22.936Z,14.07
2022-09-13T18:41:09.814Z,14.03
2022-09-13T18:43:41.705Z,14.04
2022-09-13T18:46:20.421Z,14.16
2022-09-13T18:48:54.454Z,14.06
2022-09-13T18:51:29.387Z,14.06
2022-09-13T18:54:10.828Z,13.95
2022-09-13T18:56:48.535Z,14.12
2022-09-13T18:59:37.686Z,14.05
2022-09-13T19:02:10.831Z,14.06
2022-09-13T19:04:44.296Z,14.04
2022-09-13T19:07:22.741Z,13.83
2022-09-13T19:09:51.983Z,13.88
2022-09-13T19:12:27.293Z,13.88
2022-09-13T19:15:05.892Z,13.83
2022-09-13T19:17:39.980Z,13.83
2022-09-13T19:20:10.730Z,13.85
2022-09-13T19:22:44.900Z,13.95
2022-09-13T19:25:15.940Z,13.84
2022-09-13T19:27:47.398Z,13.84
2022-09-13T19:30:28.311Z,13.77
2022-09-13T19:33:03.527Z,13.64
2022-09-13T19:35:40.686Z,13.70
2022-09-13T19:38:10.934Z,13.78
2022-09-13T19:40:46.107Z,13.78
2022-09-13T19:43:19.386Z,13.71
2022-09-13T19:46:17.670Z,13.79
2022-09-13T19:48:50.268Z,13.73
2022-09-13T19:51:26.253Z,13.77
2022-09-13T19:53:59.734Z,13.78
2022-09-13T19:56:34.984Z,13.74
2022-09-13T19:59:17.180Z,13.77
2022-09-13T20:01:54.939Z,13.77
2022-09-13T20:04:28.182Z,13.78
2022-09-13T20:06:58.554Z,13.61
2022-09-13T20:09:30.825Z,13.61
2022-09-13T20:12:07.221Z,13.50
2022-09-13T20:14:39.157Z,13.70
2022-09-13T20:17:11.828Z,13.58
2022-09-13T20:19:49.125Z,13.58
2022-09-13T20:22:14.560Z,13.54
2022-09-13T20:24:45.083Z,13.57
2022-09-13T20:27:18.998Z,13.61
2022-09-13T20:29:51.888Z,13.61
2022-09-13T20:32:24.114Z,13.63
2022-09-13T20:34:54.629Z,13.60
2022-09-13T20:37:28.165Z,13.51
2022-09-13T20:40:01.589Z,13.51
2022-09-13T20:42:34.444Z,13.40
2022-09-13T20:45:08.932Z,13.39
2022-09-13T20:47:40.165Z,13.46
2022-09-13T20:50:11.130Z,13.54
2022-09-13T20:52:41.498Z,13.41
2022-09-13T20:55:11.727Z,13.53
2022-09-13T20:57:47.867Z,13.53
2022-09-13T21:00:18.067Z,13.37
2022-09-13T21:02:48.347Z,13.37
2022-09-13T21:05:22.000Z,13.53
2022-09-13T21:07:53.101Z,13.53
2022-09-13T21:10:26.549Z,13.35
2022-09-13T21:12:56.704Z,13.45
2022-09-13T21:15:27.137Z,13.42
2022-09-13T21:18:00.191Z,13.50
2022-09-13T21:20:35.565Z,13.52
2022-09-13T21:23:05.131Z,13.43
2022-09-13T21:25:36.960Z,13.40
2022-09-13T21:28:08.051Z,13.45
2022-09-13T21:30:39.222Z,13.28
2022-09-13T21:33:09.591Z,13.37
2022-09-13T21:35:39.964Z,13.37
2022-09-13T21:38:10.479Z,13.37
2022-09-13T21:40:40.796Z,13.37
2022-09-13T21:43:26.351Z,13.26
2022-09-13T21:45:56.699Z,13.26
2022-09-13T21:48:27.889Z,13.24
2022-09-13T21:51:27.967Z,13.24
2022-09-13T21:54:00.854Z,13.21
2022-09-13T21:56:32.742Z,13.16
2022-09-13T21:59:05.610Z,13.19
2022-09-13T22:01:57.319Z,13.19
2022-09-13T22:04:27.913Z,13.32
2022-09-13T22:06:58.298Z,13.17
2022-09-13T22:09:29.025Z,13.15
2022-09-13T22:11:59.773Z,13.26
2022-09-13T22:14:29.973Z,13.19
2022-09-13T22:17:00.632Z,13.11
2022-09-13T22:19:30.943Z,13.29
2022-09-13T22:22:01.192Z,13.31
2022-09-13T22:24:32.045Z,13.31
2022-09-13T22:27:02.475Z,13.23
2022-09-13T22:29:32.944Z,13.01
2022-09-13T22:32:03.505Z,13.20
2022-09-13T22:34:33.873Z,13.17
2022-09-13T22:37:04.688Z,13.19
2022-09-13T22:39:36.634Z,13.25
2022-09-13T22:42:06.876Z,13.25
2022-09-13T22:44:37.147Z,13.08
2022-09-13T22:47:07.272Z,13.11
2022-09-13T22:49:37.832Z,13.11
2022-09-13T22:52:08.147Z,13.21
2022-09-13T22:54:39.063Z,13.18
2022-09-13T22:57:09.491Z,13.18
2022-09-13T22:59:40.108Z,13.23
2022-09-13T23:02:10.864Z,13.19
2022-09-13T23:04:41.330Z,13.19
2022-09-13T23:07:11.864Z,13.01
2022-09-13T23:09:42.407Z,12.94
2022-09-13T23:12:14.071Z,13.08
2022-09-13T23:14:45.426Z,13.08
2022-09-13T23:17:15.649Z,13.08
2022-09-13T23:19:45.820Z,13.08
2022-09-13T23:22:15.891Z,13.31
2022-09-13T23:24:46.555Z,13.34
2022-09-13T23:27:16.832Z,13.41
2022-09-13T23:29:50.000Z,13.26
2022-09-13T23:32:20.507Z,13.18
2022-09-13T23:34:50.783Z,13.18
2022-09-13T23:37:21.370Z,13.24
2022-09-13T23:39:51.727Z,13.21
2022-09-13T23:42:21.903Z,13.12
2022-09-13T23:44:52.424Z,13.05
2022-09-13T23:47:22.959Z,13.12
2022-09-13T23:49:53.207Z,13.19
2022-09-13T23:52:23.519Z,13.19
2022-09-13T23:54:56.044Z,13.17
2022-09-13T23:57:26.458Z,13.01
